sensor_id;sensor_type;location;lat;lon;timestamp;temperature;humidity
17039;DHT22;8636;55.750;13.202;2024-01-06T00:01:55;-6.40;99.90
17039;DHT22;8636;55.750;13.202;2024-01-06T00:04:24;-6.40;99.90
17039;DHT22;8636;55.750;13.202;2024-01-06T00:06:59;-6.40;99.90
17039;DHT22;8636;55.750;13.202;2024-01-06T00:09:33;-6.50;99.90
17039;DHT22;8636;55.750;13.202;2024-01-06T00:12:08;-6.50;99.90
17039;DHT22;8636;55.750;13.202;2024-01-06T00:14:36;-6.50;99.90
17039;DHT22;8636;55.750;13.202;2024-01-06T00:17:04;-6.50;99.90
17039;DHT22;8636;55.750;13.202;2024-01-06T00:19:40;-6.40;99.90
17039;DHT22;8636;55.750;13.202;2024-01-06T00:22:08;-6.40;99.90
17039;DHT22;8636;55.750;13.202;2024-01-06T00:24:43;-6.40;99.90
17039;DHT22;8636;55.750;13.202;2024-01-06T00:27:11;-6.40;99.90
17039;DHT22;8636;55.750;13.202;2024-01-06T00:29:46;-6.40;99.90
17039;DHT22;8636;55.750;13.202;2024-01-06T00:32:14;-6.40;99.90
17039;DHT22;8636;55.750;13.202;2024-01-06T00:34:49;-6.40;99.90
17039;DHT22;8636;55.750;13.202;2024-01-06T00:37:17;-6.40;99.90
17039;DHT22;8636;55.750;13.202;2024-01-06T00:39:52;-6.40;99.90
17039;DHT22;8636;55.750;13.202;2024-01-06T00:42:20;-6.40;99.90
17039;DHT22;8636;55.750;13.202;2024-01-06T00:44:54;-6.40;99.90
17039;DHT22;8636;55.750;13.202;2024-01-06T00:47:22;-6.40;99.90
17039;DHT22;8636;55.750;13.202;2024-01-06T00:49:52;-6.50;99.90
17039;DHT22;8636;55.750;13.202;2024-01-06T00:52:26;-6.50;99.90
17039;DHT22;8636;55.750;13.202;2024-01-06T00:54:54;-6.60;99.90
17039;DHT22;8636;55.750;13.202;2024-01-06T00:57:22;-6.60;99.90
17039;DHT22;8636;55.750;13.202;2024-01-06T00:59:57;-6.60;99.90
17039;DHT22;8636;55.750;13.202;2024-01-06T01:02:25;-6.70;99.90
17039;DHT22;8636;55.750;13.202;2024-01-06T01:05:08;-6.70;99.90
17039;DHT22;8636;55.750;13.202;2024-01-06T01:07:49;-6.70;99.90
17039;DHT22;8636;55.750;13.202;2024-01-06T01:10:17;-6.80;99.90
17039;DHT22;8636;55.750;13.202;2024-01-06T01:12:45;-6.70;99.90
17039;DHT22;8636;55.750;13.202;2024-01-06T01:15:19;-6.70;99.90
17039;DHT22;8636;55.750;13.202;2024-01-06T01:17:47;-6.70;99.90
17039;DHT22;8636;55.750;13.202;2024-01-06T01:20:22;-6.70;99.90
17039;DHT22;8636;55.750;13.202;2024-01-06T01:22:50;-6.70;99.90
17039;DHT22;8636;55.750;13.202;2024-01-06T01:25:25;-6.60;99.90
17039;DHT22;8636;55.750;13.202;2024-01-06T01:27:53;-6.60;99.90
17039;DHT22;8636;55.750;13.202;2024-01-06T01:30:27;-6.60;99.90
17039;DHT22;8636;55.750;13.202;2024-01-06T01:32:55;-6.60;99.90
17039;DHT22;8636;55.750;13.202;2024-01-06T01:35:30;-6.60;99.90
17039;DHT22;8636;55.750;13.202;2024-01-06T01:37:58;-6.60;99.90
17039;DHT22;8636;55.750;13.202;2024-01-06T01:40:33;-6.60;99.90
17039;DHT22;8636;55.750;13.202;2024-01-06T01:43:01;-6.60;99.90
17039;DHT22;8636;55.750;13.202;2024-01-06T01:45:35;-6.60;99.90
17039;DHT22;8636;55.750;13.202;2024-01-06T01:48:03;-6.60;99.90
17039;DHT22;8636;55.750;13.202;2024-01-06T01:50:40;-6.60;99.90
17039;DHT22;8636;55.750;13.202;2024-01-06T01:53:08;-6.60;99.90
17039;DHT22;8636;55.750;13.202;2024-01-06T01:55:43;-6.60;99.90
17039;DHT22;8636;55.750;13.202;2024-01-06T01:58:12;-6.60;99.90
17039;DHT22;8636;55.750;13.202;2024-01-06T02:00:48;-6.60;99.90
17039;DHT22;8636;55.750;13.202;2024-01-06T02:03:24;-6.50;99.90
17039;DHT22;8636;55.750;13.202;2024-01-06T02:06:00;-6.60;99.90
17039;DHT22;8636;55.750;13.202;2024-01-06T02:08:28;-6.70;99.90
17039;DHT22;8636;55.750;13.202;2024-01-06T02:11:03;-6.70;99.90
17039;DHT22;8636;55.750;13.202;2024-01-06T02:13:33;-6.80;99.90
17039;DHT22;8636;55.750;13.202;2024-01-06T02:16:08;-6.80;99.90
17039;DHT22;8636;55.750;13.202;2024-01-06T02:18:36;-6.90;99.90
17039;DHT22;8636;55.750;13.202;2024-01-06T02:21:11;-6.90;99.90
17039;DHT22;8636;55.750;13.202;2024-01-06T02:23:42;-7.00;99.90
17039;DHT22;8636;55.750;13.202;2024-01-06T02:26:16;-7.00;99.90
17039;DHT22;8636;55.750;13.202;2024-01-06T02:28:44;-7.10;99.90
17039;DHT22;8636;55.750;13.202;2024-01-06T02:31:21;-7.10;99.90
17039;DHT22;8636;55.750;13.202;2024-01-06T02:33:49;-7.10;99.90
17039;DHT22;8636;55.750;13.202;2024-01-06T02:36:23;-7.10;99.90
17039;DHT22;8636;55.750;13.202;2024-01-06T02:38:52;-7.10;99.90
17039;DHT22;8636;55.750;13.202;2024-01-06T02:41:27;-7.10;99.90
17039;DHT22;8636;55.750;13.202;2024-01-06T02:43:55;-7.20;99.90
17039;DHT22;8636;55.750;13.202;2024-01-06T02:46:30;-7.30;99.90
17039;DHT22;8636;55.750;13.202;2024-01-06T02:48:58;-7.40;99.90
17039;DHT22;8636;55.750;13.202;2024-01-06T02:51:32;-7.50;99.90
17039;DHT22;8636;55.750;13.202;2024-01-06T02:54:01;-7.50;99.90
17039;DHT22;8636;55.750;13.202;2024-01-06T02:56:36;-7.60;99.90
17039;DHT22;8636;55.750;13.202;2024-01-06T02:59:04;-7.80;99.90
17039;DHT22;8636;55.750;13.202;2024-01-06T03:01:39;-7.80;99.90
17039;DHT22;8636;55.750;13.202;2024-01-06T03:04:20;-7.90;99.90
17039;DHT22;8636;55.750;13.202;2024-01-06T03:06:54;-7.90;99.90
17039;DHT22;8636;55.750;13.202;2024-01-06T03:09:23;-7.90;99.90
17039;DHT22;8636;55.750;13.202;2024-01-06T03:11:58;-7.90;99.90
17039;DHT22;8636;55.750;13.202;2024-01-06T03:14:26;-8.00;99.90
17039;DHT22;8636;55.750;13.202;2024-01-06T03:17:00;-8.00;99.90
17039;DHT22;8636;55.750;13.202;2024-01-06T03:19:28;-8.00;99.90
17039;DHT22;8636;55.750;13.202;2024-01-06T03:22:02;-8.00;99.90
17039;DHT22;8636;55.750;13.202;2024-01-06T03:24:31;-8.00;99.90
17039;DHT22;8636;55.750;13.202;2024-01-06T03:27:06;-8.10;99.90
17039;DHT22;8636;55.750;13.202;2024-01-06T03:29:35;-8.10;99.90
17039;DHT22;8636;55.750;13.202;2024-01-06T03:32:10;-8.20;99.90
17039;DHT22;8636;55.750;13.202;2024-01-06T03:34:38;-8.20;99.90
17039;DHT22;8636;55.750;13.202;2024-01-06T03:37:12;-8.20;99.90
17039;DHT22;8636;55.750;13.202;2024-01-06T03:39:41;-8.30;99.90
17039;DHT22;8636;55.750;13.202;2024-01-06T03:42:16;-8.20;99.90
17039;DHT22;8636;55.750;13.202;2024-01-06T03:44:44;-8.30;99.90
17039;DHT22;8636;55.750;13.202;2024-01-06T03:47:19;-8.30;99.90
17039;DHT22;8636;55.750;13.202;2024-01-06T03:49:47;-8.30;99.90
17039;DHT22;8636;55.750;13.202;2024-01-06T03:52:22;-8.20;99.90
17039;DHT22;8636;55.750;13.202;2024-01-06T03:54:51;-8.20;99.90
17039;DHT22;8636;55.750;13.202;2024-01-06T03:57:26;-8.20;99.90
17039;DHT22;8636;55.750;13.202;2024-01-06T03:59:54;-8.20;99.90
17039;DHT22;8636;55.750;13.202;2024-01-06T04:02:28;-8.20;99.90
17039;DHT22;8636;55.750;13.202;2024-01-06T04:05:09;-8.20;99.90
17039;DHT22;8636;55.750;13.202;2024-01-06T04:07:50;-8.30;99.90
17039;DHT22;8636;55.750;13.202;2024-01-06T04:10:19;-8.40;99.90
17039;DHT22;8636;55.750;13.202;2024-01-06T04:12:54;-8.40;99.90
17039;DHT22;8636;55.750;13.202;2024-01-06T04:15:22;-8.30;99.90
17039;DHT22;8636;55.750;13.202;2024-01-06T04:17:56;-8.30;99.90
17039;DHT22;8636;55.750;13.202;2024-01-06T04:20:24;-8.20;99.90
17039;DHT22;8636;55.750;13.202;2024-01-06T04:22:58;-8.20;99.90
17039;DHT22;8636;55.750;13.202;2024-01-06T04:25:27;-8.20;99.90
17039;DHT22;8636;55.750;13.202;2024-01-06T04:28:02;-8.20;99.90
17039;DHT22;8636;55.750;13.202;2024-01-06T04:30:30;-8.20;99.90
17039;DHT22;8636;55.750;13.202;2024-01-06T04:33:05;-8.30;99.90
17039;DHT22;8636;55.750;13.202;2024-01-06T04:35:34;-8.30;99.90
17039;DHT22;8636;55.750;13.202;2024-01-06T04:38:08;-8.40;99.90
17039;DHT22;8636;55.750;13.202;2024-01-06T04:40:37;-8.50;99.90
17039;DHT22;8636;55.750;13.202;2024-01-06T04:43:12;-8.40;99.90
17039;DHT22;8636;55.750;13.202;2024-01-06T04:45:40;-8.40;99.90
17039;DHT22;8636;55.750;13.202;2024-01-06T04:48:14;-8.40;99.90
17039;DHT22;8636;55.750;13.202;2024-01-06T04:50:42;-8.50;99.90
17039;DHT22;8636;55.750;13.202;2024-01-06T04:53:17;-8.40;99.90
17039;DHT22;8636;55.750;13.202;2024-01-06T04:55:46;-8.40;99.90
17039;DHT22;8636;55.750;13.202;2024-01-06T04:58:21;-8.40;99.90
17039;DHT22;8636;55.750;13.202;2024-01-06T05:00:49;-8.30;99.90
17039;DHT22;8636;55.750;13.202;2024-01-06T05:03:32;-8.30;99.90
17039;DHT22;8636;55.750;13.202;2024-01-06T05:06:00;-8.30;99.90
17039;DHT22;8636;55.750;13.202;2024-01-06T05:08:34;-8.20;99.90
17039;DHT22;8636;55.750;13.202;2024-01-06T05:11:06;-8.20;99.90
17039;DHT22;8636;55.750;13.202;2024-01-06T05:13:41;-8.20;99.90
17039;DHT22;8636;55.750;13.202;2024-01-06T05:16:09;-8.20;99.90
17039;DHT22;8636;55.750;13.202;2024-01-06T05:18:43;-8.30;99.90
17039;DHT22;8636;55.750;13.202;2024-01-06T05:21:11;-8.30;99.90
17039;DHT22;8636;55.750;13.202;2024-01-06T05:23:46;-8.30;99.90
17039;DHT22;8636;55.750;13.202;2024-01-06T05:26:15;-8.30;99.90
17039;DHT22;8636;55.750;13.202;2024-01-06T05:28:51;-8.30;99.90
17039;DHT22;8636;55.750;13.202;2024-01-06T05:31:19;-8.30;99.90
17039;DHT22;8636;55.750;13.202;2024-01-06T05:33:54;-8.30;99.90
17039;DHT22;8636;55.750;13.202;2024-01-06T05:36:22;-8.30;99.90
17039;DHT22;8636;55.750;13.202;2024-01-06T05:38:57;-8.30;99.90
17039;DHT22;8636;55.750;13.202;2024-01-06T05:41:28;-8.30;99.90
17039;DHT22;8636;55.750;13.202;2024-01-06T05:44:03;-8.30;99.90
17039;DHT22;8636;55.750;13.202;2024-01-06T05:46:31;-8.40;99.90
17039;DHT22;8636;55.750;13.202;2024-01-06T05:49:05;-8.50;99.90
17039;DHT22;8636;55.750;13.202;2024-01-06T05:51:33;-8.50;99.90
17039;DHT22;8636;55.750;13.202;2024-01-06T05:54:01;-8.60;99.90
17039;DHT22;8636;55.750;13.202;2024-01-06T05:56:37;-8.50;99.90
17039;DHT22;8636;55.750;13.202;2024-01-06T05:59:05;-8.60;99.90
17039;DHT22;8636;55.750;13.202;2024-01-06T06:01:40;-8.60;99.90
17039;DHT22;8636;55.750;13.202;2024-01-06T06:04:08;-8.70;99.90
17039;DHT22;8636;55.750;13.202;2024-01-06T06:06:49;-8.70;99.90
17039;DHT22;8636;55.750;13.202;2024-01-06T06:09:17;-8.80;99.90
17039;DHT22;8636;55.750;13.202;2024-01-06T06:11:55;-8.80;99.90
17039;DHT22;8636;55.750;13.202;2024-01-06T06:14:23;-8.80;99.90
17039;DHT22;8636;55.750;13.202;2024-01-06T06:16:58;-8.80;99.90
17039;DHT22;8636;55.750;13.202;2024-01-06T06:19:26;-8.80;99.90
17039;DHT22;8636;55.750;13.202;2024-01-06T06:22:00;-8.80;99.90
17039;DHT22;8636;55.750;13.202;2024-01-06T06:24:28;-8.80;99.90
17039;DHT22;8636;55.750;13.202;2024-01-06T06:27:04;-8.80;99.90
17039;DHT22;8636;55.750;13.202;2024-01-06T06:29:32;-8.90;99.90
17039;DHT22;8636;55.750;13.202;2024-01-06T06:32:06;-8.90;99.90
17039;DHT22;8636;55.750;13.202;2024-01-06T06:34:34;-8.90;99.90
17039;DHT22;8636;55.750;13.202;2024-01-06T06:37:09;-8.90;99.90
17039;DHT22;8636;55.750;13.202;2024-01-06T06:39:37;-8.90;99.90
17039;DHT22;8636;55.750;13.202;2024-01-06T06:42:12;-8.90;99.90
17039;DHT22;8636;55.750;13.202;2024-01-06T06:44:40;-8.80;99.90
17039;DHT22;8636;55.750;13.202;2024-01-06T06:47:15;-8.70;99.90
17039;DHT22;8636;55.750;13.202;2024-01-06T06:49:43;-8.70;99.90
17039;DHT22;8636;55.750;13.202;2024-01-06T06:52:18;-8.60;99.90
17039;DHT22;8636;55.750;13.202;2024-01-06T06:54:46;-8.60;99.90
17039;DHT22;8636;55.750;13.202;2024-01-06T06:57:23;-8.50;99.90
17039;DHT22;8636;55.750;13.202;2024-01-06T06:59:51;-8.40;99.90
17039;DHT22;8636;55.750;13.202;2024-01-06T07:02:33;-8.30;99.90
17039;DHT22;8636;55.750;13.202;2024-01-06T07:05:02;-8.30;99.90
17039;DHT22;8636;55.750;13.202;2024-01-06T07:07:37;-8.30;99.90
17039;DHT22;8636;55.750;13.202;2024-01-06T07:10:07;-8.30;99.90
17039;DHT22;8636;55.750;13.202;2024-01-06T07:12:42;-8.40;99.90
17039;DHT22;8636;55.750;13.202;2024-01-06T07:15:10;-8.40;99.90
17039;DHT22;8636;55.750;13.202;2024-01-06T07:17:45;-8.50;99.90
17039;DHT22;8636;55.750;13.202;2024-01-06T07:20:14;-8.60;99.90
17039;DHT22;8636;55.750;13.202;2024-01-06T07:22:48;-8.70;99.90
17039;DHT22;8636;55.750;13.202;2024-01-06T07:25:16;-8.80;99.90
17039;DHT22;8636;55.750;13.202;2024-01-06T07:27:51;-8.90;99.90
17039;DHT22;8636;55.750;13.202;2024-01-06T07:30:21;-8.90;99.90
17039;DHT22;8636;55.750;13.202;2024-01-06T07:32:57;-9.00;99.90
17039;DHT22;8636;55.750;13.202;2024-01-06T07:35:24;-9.00;99.90
17039;DHT22;8636;55.750;13.202;2024-01-06T07:37:59;-9.20;99.90
17039;DHT22;8636;55.750;13.202;2024-01-06T07:40:27;-9.20;99.90
17039;DHT22;8636;55.750;13.202;2024-01-06T07:43:02;-9.30;99.90
17039;DHT22;8636;55.750;13.202;2024-01-06T07:45:31;-9.40;99.90
17039;DHT22;8636;55.750;13.202;2024-01-06T07:48:06;-9.40;99.90
17039;DHT22;8636;55.750;13.202;2024-01-06T07:50:34;-9.40;99.90
17039;DHT22;8636;55.750;13.202;2024-01-06T07:53:08;-9.50;99.90
17039;DHT22;8636;55.750;13.202;2024-01-06T07:55:36;-9.60;99.90
17039;DHT22;8636;55.750;13.202;2024-01-06T07:58:12;-9.60;99.90
17039;DHT22;8636;55.750;13.202;2024-01-06T08:00:40;-9.60;99.90
17039;DHT22;8636;55.750;13.202;2024-01-06T08:03:15;-9.70;99.90
17039;DHT22;8636;55.750;13.202;2024-01-06T08:05:56;-9.70;99.90
17039;DHT22;8636;55.750;13.202;2024-01-06T08:08:30;-9.80;99.90
17039;DHT22;8636;55.750;13.202;2024-01-06T08:10:58;-9.70;99.90
17039;DHT22;8636;55.750;13.202;2024-01-06T08:13:33;-9.70;99.90
17039;DHT22;8636;55.750;13.202;2024-01-06T08:16:01;-9.60;99.90
17039;DHT22;8636;55.750;13.202;2024-01-06T08:18:36;-9.60;99.90
17039;DHT22;8636;55.750;13.202;2024-01-06T08:21:04;-9.50;99.90
17039;DHT22;8636;55.750;13.202;2024-01-06T08:23:39;-9.50;99.90
17039;DHT22;8636;55.750;13.202;2024-01-06T08:26:07;-9.60;99.90
17039;DHT22;8636;55.750;13.202;2024-01-06T08:28:42;-9.60;99.90
17039;DHT22;8636;55.750;13.202;2024-01-06T08:31:10;-9.60;99.90
17039;DHT22;8636;55.750;13.202;2024-01-06T08:33:45;-9.60;99.90
17039;DHT22;8636;55.750;13.202;2024-01-06T08:36:13;-9.60;99.90
17039;DHT22;8636;55.750;13.202;2024-01-06T08:38:48;-9.60;99.90
17039;DHT22;8636;55.750;13.202;2024-01-06T08:41:16;-9.60;99.90
17039;DHT22;8636;55.750;13.202;2024-01-06T08:43:51;-9.60;99.90
17039;DHT22;8636;55.750;13.202;2024-01-06T08:46:19;-9.60;99.90
17039;DHT22;8636;55.750;13.202;2024-01-06T08:48:54;-9.60;99.90
17039;DHT22;8636;55.750;13.202;2024-01-06T08:51:22;-9.40;99.90
17039;DHT22;8636;55.750;13.202;2024-01-06T08:53:57;-9.40;99.90
17039;DHT22;8636;55.750;13.202;2024-01-06T08:56:26;-9.40;99.90
17039;DHT22;8636;55.750;13.202;2024-01-06T08:59:05;-9.30;99.90
17039;DHT22;8636;55.750;13.202;2024-01-06T09:01:33;-9.30;99.90
17039;DHT22;8636;55.750;13.202;2024-01-06T09:04:11;-9.30;99.90
17039;DHT22;8636;55.750;13.202;2024-01-06T09:06:45;-9.20;99.90
17039;DHT22;8636;55.750;13.202;2024-01-06T09:09:20;-9.20;99.90
17039;DHT22;8636;55.750;13.202;2024-01-06T09:11:49;-9.10;99.90
17039;DHT22;8636;55.750;13.202;2024-01-06T09:14:26;-9.00;99.90
17039;DHT22;8636;55.750;13.202;2024-01-06T09:16:54;-9.00;99.90
17039;DHT22;8636;55.750;13.202;2024-01-06T09:19:28;-9.00;99.90
17039;DHT22;8636;55.750;13.202;2024-01-06T09:21:57;-8.90;99.90
17039;DHT22;8636;55.750;13.202;2024-01-06T09:24:32;-8.70;99.90
17039;DHT22;8636;55.750;13.202;2024-01-06T09:27:01;-8.70;99.90
17039;DHT22;8636;55.750;13.202;2024-01-06T09:29:37;-8.60;99.90
17039;DHT22;8636;55.750;13.202;2024-01-06T09:32:05;-8.50;99.90
17039;DHT22;8636;55.750;13.202;2024-01-06T09:34:40;-8.30;99.90
17039;DHT22;8636;55.750;13.202;2024-01-06T09:37:08;-8.30;99.90
17039;DHT22;8636;55.750;13.202;2024-01-06T09:39:43;-8.30;99.90
17039;DHT22;8636;55.750;13.202;2024-01-06T09:42:11;-8.20;99.90
17039;DHT22;8636;55.750;13.202;2024-01-06T09:44:47;-8.20;99.90
17039;DHT22;8636;55.750;13.202;2024-01-06T09:47:18;-8.30;99.90
17039;DHT22;8636;55.750;13.202;2024-01-06T09:49:53;-8.40;99.90
17039;DHT22;8636;55.750;13.202;2024-01-06T09:52:23;-8.40;99.90
17039;DHT22;8636;55.750;13.202;2024-01-06T09:55:08;-8.50;99.90
17039;DHT22;8636;55.750;13.202;2024-01-06T09:57:38;-8.60;99.90
17039;DHT22;8636;55.750;13.202;2024-01-06T10:00:14;-8.70;99.90
17039;DHT22;8636;55.750;13.202;2024-01-06T10:02:43;-8.70;99.90
17039;DHT22;8636;55.750;13.202;2024-01-06T10:05:19;-8.70;99.90
17039;DHT22;8636;55.750;13.202;2024-01-06T10:07:53;-8.70;99.90
17039;DHT22;8636;55.750;13.202;2024-01-06T10:10:28;-8.80;99.90
17039;DHT22;8636;55.750;13.202;2024-01-06T10:12:56;-8.80;99.90
17039;DHT22;8636;55.750;13.202;2024-01-06T10:15:35;-8.90;99.90
17039;DHT22;8636;55.750;13.202;2024-01-06T10:18:04;-8.90;99.90
17039;DHT22;8636;55.750;13.202;2024-01-06T10:20:38;-9.00;99.90
17039;DHT22;8636;55.750;13.202;2024-01-06T10:23:06;-8.90;99.90
17039;DHT22;8636;55.750;13.202;2024-01-06T10:25:41;-8.90;99.90
17039;DHT22;8636;55.750;13.202;2024-01-06T10:28:11;-8.90;99.90
17039;DHT22;8636;55.750;13.202;2024-01-06T10:30:47;-9.00;99.90
17039;DHT22;8636;55.750;13.202;2024-01-06T10:33:15;-9.00;99.90
17039;DHT22;8636;55.750;13.202;2024-01-06T10:35:50;-8.90;99.90
17039;DHT22;8636;55.750;13.202;2024-01-06T10:38:18;-8.80;99.90
17039;DHT22;8636;55.750;13.202;2024-01-06T10:40:56;-8.70;99.90
17039;DHT22;8636;55.750;13.202;2024-01-06T10:43:26;-8.40;99.90
17039;DHT22;8636;55.750;13.202;2024-01-06T10:46:04;-8.40;99.90
17039;DHT22;8636;55.750;13.202;2024-01-06T10:48:33;-8.20;99.90
17039;DHT22;8636;55.750;13.202;2024-01-06T10:51:08;-8.10;99.90
17039;DHT22;8636;55.750;13.202;2024-01-06T10:53:36;-7.90;99.90
17039;DHT22;8636;55.750;13.202;2024-01-06T10:56:12;-7.90;99.90
17039;DHT22;8636;55.750;13.202;2024-01-06T10:58:45;-7.90;99.90
17039;DHT22;8636;55.750;13.202;2024-01-06T11:01:23;-7.90;99.90
17039;DHT22;8636;55.750;13.202;2024-01-06T11:04:02;-7.80;99.90
17039;DHT22;8636;55.750;13.202;2024-01-06T11:06:39;-7.70;99.90
17039;DHT22;8636;55.750;13.202;2024-01-06T11:09:11;-7.60;99.90
17039;DHT22;8636;55.750;13.202;2024-01-06T11:11:47;-7.50;99.90
17039;DHT22;8636;55.750;13.202;2024-01-06T11:14:19;-7.50;99.90
17039;DHT22;8636;55.750;13.202;2024-01-06T11:16:55;-7.50;99.90
17039;DHT22;8636;55.750;13.202;2024-01-06T11:19:43;-7.40;99.90
17039;DHT22;8636;55.750;13.202;2024-01-06T11:22:24;-7.40;99.90
17039;DHT22;8636;55.750;13.202;2024-01-06T11:24:54;-7.40;99.90
17039;DHT22;8636;55.750;13.202;2024-01-06T11:27:30;-7.40;99.90
17039;DHT22;8636;55.750;13.202;2024-01-06T11:30:00;-7.30;99.90
17039;DHT22;8636;55.750;13.202;2024-01-06T11:32:39;-7.00;99.90
17039;DHT22;8636;55.750;13.202;2024-01-06T11:35:10;-7.10;99.90
17039;DHT22;8636;55.750;13.202;2024-01-06T11:37:52;-7.20;99.90
17039;DHT22;8636;55.750;13.202;2024-01-06T11:40:23;-7.10;99.90
17039;DHT22;8636;55.750;13.202;2024-01-06T11:43:00;-7.10;99.90
17039;DHT22;8636;55.750;13.202;2024-01-06T11:45:29;-7.30;99.90
17039;DHT22;8636;55.750;13.202;2024-01-06T11:48:07;-7.50;99.90
17039;DHT22;8636;55.750;13.202;2024-01-06T11:50:36;-7.50;99.90
17039;DHT22;8636;55.750;13.202;2024-01-06T11:53:11;-7.50;99.90
17039;DHT22;8636;55.750;13.202;2024-01-06T11:55:39;-7.50;99.90
17039;DHT22;8636;55.750;13.202;2024-01-06T11:58:16;-7.30;99.90
17039;DHT22;8636;55.750;13.202;2024-01-06T12:00:44;-7.10;99.90
17039;DHT22;8636;55.750;13.202;2024-01-06T12:03:29;-7.10;99.90
17039;DHT22;8636;55.750;13.202;2024-01-06T12:06:04;-7.10;99.90
17039;DHT22;8636;55.750;13.202;2024-01-06T12:08:39;-6.90;99.90
17039;DHT22;8636;55.750;13.202;2024-01-06T12:11:07;-6.70;99.90
17039;DHT22;8636;55.750;13.202;2024-01-06T12:13:35;-6.80;99.90
17039;DHT22;8636;55.750;13.202;2024-01-06T12:16:10;-7.00;99.90
17039;DHT22;8636;55.750;13.202;2024-01-06T12:18:39;-7.10;99.90
17039;DHT22;8636;55.750;13.202;2024-01-06T12:21:14;-7.10;99.90
17039;DHT22;8636;55.750;13.202;2024-01-06T12:23:42;-7.00;99.90
17039;DHT22;8636;55.750;13.202;2024-01-06T12:26:10;-7.10;99.90
17039;DHT22;8636;55.750;13.202;2024-01-06T12:28:44;-7.10;99.90
17039;DHT22;8636;55.750;13.202;2024-01-06T12:31:12;-7.10;99.90
17039;DHT22;8636;55.750;13.202;2024-01-06T12:33:43;-7.00;99.90
17039;DHT22;8636;55.750;13.202;2024-01-06T12:36:17;-7.10;99.90
17039;DHT22;8636;55.750;13.202;2024-01-06T12:38:52;-7.10;99.90
17039;DHT22;8636;55.750;13.202;2024-01-06T12:41:29;-7.10;99.90
17039;DHT22;8636;55.750;13.202;2024-01-06T12:43:59;-7.00;99.90
17039;DHT22;8636;55.750;13.202;2024-01-06T12:46:28;-6.90;99.90
17039;DHT22;8636;55.750;13.202;2024-01-06T12:49:04;-6.60;99.90
17039;DHT22;8636;55.750;13.202;2024-01-06T12:51:33;-6.50;99.90
17039;DHT22;8636;55.750;13.202;2024-01-06T12:54:01;-6.30;99.90
17039;DHT22;8636;55.750;13.202;2024-01-06T12:56:36;-6.00;99.90
17039;DHT22;8636;55.750;13.202;2024-01-06T12:59:04;-6.00;99.90
17039;DHT22;8636;55.750;13.202;2024-01-06T13:01:39;-6.10;99.90
17039;DHT22;8636;55.750;13.202;2024-01-06T13:04:15;-6.10;99.90
17039;DHT22;8636;55.750;13.202;2024-01-06T13:06:56;-6.30;99.90
17039;DHT22;8636;55.750;13.202;2024-01-06T13:09:28;-6.40;99.90
17039;DHT22;8636;55.750;13.202;2024-01-06T13:12:04;-6.50;99.90
17039;DHT22;8636;55.750;13.202;2024-01-06T13:14:32;-6.50;99.90
17039;DHT22;8636;55.750;13.202;2024-01-06T13:17:00;-6.50;99.90
17039;DHT22;8636;55.750;13.202;2024-01-06T13:19:36;-6.50;99.90
17039;DHT22;8636;55.750;13.202;2024-01-06T13:22:04;-6.50;99.90
17039;DHT22;8636;55.750;13.202;2024-01-06T13:24:32;-6.40;99.90
17039;DHT22;8636;55.750;13.202;2024-01-06T13:27:07;-6.50;99.90
17039;DHT22;8636;55.750;13.202;2024-01-06T13:29:35;-6.50;99.90
17039;DHT22;8636;55.750;13.202;2024-01-06T13:32:06;-6.50;99.90
17039;DHT22;8636;55.750;13.202;2024-01-06T13:34:42;-6.60;99.90
17039;DHT22;8636;55.750;13.202;2024-01-06T13:37:10;-6.60;99.90
17039;DHT22;8636;55.750;13.202;2024-01-06T13:39:45;-6.60;99.90
17039;DHT22;8636;55.750;13.202;2024-01-06T13:42:13;-6.60;99.90
17039;DHT22;8636;55.750;13.202;2024-01-06T13:44:47;-6.70;99.90
17039;DHT22;8636;55.750;13.202;2024-01-06T13:47:15;-6.80;99.90
17039;DHT22;8636;55.750;13.202;2024-01-06T13:49:51;-6.80;99.90
17039;DHT22;8636;55.750;13.202;2024-01-06T13:52:22;-6.90;99.90
17039;DHT22;8636;55.750;13.202;2024-01-06T13:54:56;-6.90;99.90
17039;DHT22;8636;55.750;13.202;2024-01-06T13:57:24;-6.90;99.90
17039;DHT22;8636;55.750;13.202;2024-01-06T13:59:58;-7.00;99.90
17039;DHT22;8636;55.750;13.202;2024-01-06T14:02:26;-7.00;99.90
17039;DHT22;8636;55.750;13.202;2024-01-06T14:05:08;-7.10;99.90
17039;DHT22;8636;55.750;13.202;2024-01-06T14:07:36;-7.10;99.90
17039;DHT22;8636;55.750;13.202;2024-01-06T14:10:11;-7.10;99.90
17039;DHT22;8636;55.750;13.202;2024-01-06T14:12:41;-7.20;99.90
17039;DHT22;8636;55.750;13.202;2024-01-06T14:15:15;-7.20;99.90
17039;DHT22;8636;55.750;13.202;2024-01-06T14:17:43;-7.30;99.90
17039;DHT22;8636;55.750;13.202;2024-01-06T14:20:24;-7.30;99.90
17039;DHT22;8636;55.750;13.202;2024-01-06T14:22:51;-7.40;99.90
17039;DHT22;8636;55.750;13.202;2024-01-06T14:25:26;-7.50;99.90
17039;DHT22;8636;55.750;13.202;2024-01-06T14:27:54;-7.60;99.90
17039;DHT22;8636;55.750;13.202;2024-01-06T14:30:28;-7.70;99.90
17039;DHT22;8636;55.750;13.202;2024-01-06T14:32:57;-7.80;99.90
17039;DHT22;8636;55.750;13.202;2024-01-06T14:35:32;-7.80;99.90
17039;DHT22;8636;55.750;13.202;2024-01-06T14:38:00;-7.90;99.90
17039;DHT22;8636;55.750;13.202;2024-01-06T14:40:35;-8.00;99.90
17039;DHT22;8636;55.750;13.202;2024-01-06T14:43:03;-8.00;99.90
17039;DHT22;8636;55.750;13.202;2024-01-06T14:45:38;-8.10;99.90
17039;DHT22;8636;55.750;13.202;2024-01-06T14:48:12;-8.10;99.90
17039;DHT22;8636;55.750;13.202;2024-01-06T14:50:49;-8.10;99.90
17039;DHT22;8636;55.750;13.202;2024-01-06T14:53:17;-8.20;99.90
17039;DHT22;8636;55.750;13.202;2024-01-06T14:55:52;-8.20;99.90
17039;DHT22;8636;55.750;13.202;2024-01-06T14:58:20;-8.20;99.90
17039;DHT22;8636;55.750;13.202;2024-01-06T15:00:54;-8.20;99.90
17039;DHT22;8636;55.750;13.202;2024-01-06T15:03:22;-8.20;99.90
17039;DHT22;8636;55.750;13.202;2024-01-06T15:06:05;-8.20;99.90
17039;DHT22;8636;55.750;13.202;2024-01-06T15:08:33;-8.30;99.90
17039;DHT22;8636;55.750;13.202;2024-01-06T15:11:08;-8.40;99.90
17039;DHT22;8636;55.750;13.202;2024-01-06T15:13:36;-8.40;99.90
17039;DHT22;8636;55.750;13.202;2024-01-06T15:16:10;-8.50;99.90
17039;DHT22;8636;55.750;13.202;2024-01-06T15:18:38;-8.60;99.90
17039;DHT22;8636;55.750;13.202;2024-01-06T15:21:13;-8.60;99.90
17039;DHT22;8636;55.750;13.202;2024-01-06T15:23:42;-8.60;99.90
17039;DHT22;8636;55.750;13.202;2024-01-06T15:26:21;-8.70;99.90
17039;DHT22;8636;55.750;13.202;2024-01-06T15:28:49;-8.80;99.90
17039;DHT22;8636;55.750;13.202;2024-01-06T15:31:24;-8.80;99.90
17039;DHT22;8636;55.750;13.202;2024-01-06T15:33:52;-8.90;99.90
17039;DHT22;8636;55.750;13.202;2024-01-06T15:36:29;-9.00;99.90
17039;DHT22;8636;55.750;13.202;2024-01-06T15:38:56;-8.90;99.90
17039;DHT22;8636;55.750;13.202;2024-01-06T15:41:31;-8.90;99.90
17039;DHT22;8636;55.750;13.202;2024-01-06T15:43:59;-8.90;99.90
17039;DHT22;8636;55.750;13.202;2024-01-06T15:46:33;-9.00;99.90
17039;DHT22;8636;55.750;13.202;2024-01-06T15:49:02;-9.00;99.90
17039;DHT22;8636;55.750;13.202;2024-01-06T15:51:37;-9.00;99.90
17039;DHT22;8636;55.750;13.202;2024-01-06T15:54:05;-9.00;99.90
17039;DHT22;8636;55.750;13.202;2024-01-06T15:56:40;-8.90;99.90
17039;DHT22;8636;55.750;13.202;2024-01-06T15:59:08;-8.90;99.90
17039;DHT22;8636;55.750;13.202;2024-01-06T16:01:43;-8.90;99.90